sensor_id;sensor_type;location;lat;lon;timestamp;pressure;altitude;pressure_sealevel;temperature;humidity
14790;BME280;7486;51.010;10.366;2022-10-17T00:00:34;98733.75;;;10.83;78.11
14790;BME280;7486;51.010;10.366;2022-10-17T00:03:01;98733.00;;;10.89;78.34
14790;BME280;7486;51.010;10.366;2022-10-17T00:05:27;98748.19;;;10.73;79.88
14790;BME280;7486;51.010;10.366;2022-10-17T00:07:54;98734.53;;;10.77;80.25
14790;BME280;7486;51.010;10.366;2022-10-17T00:10:21;98752.38;;;10.61;80.78
14790;BME280;7486;51.010;10.366;2022-10-17T00:12:49;98748.63;;;10.49;80.89
14790;BME280;7486;51.010;10.366;2022-10-17T00:15:18;98756.66;;;10.62;80.80
14790;BME280;7486;51.010;10.366;2022-10-17T00:17:46;98757.03;;;10.59;79.83
14790;BME280;7486;51.010;10.366;2022-10-17T00:20:13;98761.78;;;10.64;79.07
14790;BME280;7486;51.010;10.366;2022-10-17T00:22:41;98766.69;;;10.67;78.94
14790;BME280;7486;51.010;10.366;2022-10-17T00:25:09;98745.06;;;10.42;79.91
14790;BME280;7486;51.010;10.366;2022-10-17T00:27:38;98761.34;;;10.60;80.31
14790;BME280;7486;51.010;10.366;2022-10-17T00:30:07;98756.56;;;10.49;81.61
14790;BME280;7486;51.010;10.366;2022-10-17T00:32:35;98764.16;;;10.59;81.59
14790;BME280;7486;51.010;10.366;2022-10-17T00:35:03;98764.13;;;10.52;80.85
14790;BME280;7486;51.010;10.366;2022-10-17T00:37:30;98759.84;;;10.30;81.28
14790;BME280;7486;51.010;10.366;2022-10-17T00:39:57;98742.38;;;10.14;83.93
14790;BME280;7486;51.010;10.366;2022-10-17T00:42:25;98755.81;;;10.34;83.58
14790;BME280;7486;51.010;10.366;2022-10-17T00:47:25;98762.28;;;10.32;80.94
14790;BME280;7486;51.010;10.366;2022-10-17T00:49:51;98763.66;;;10.28;80.66
14790;BME280;7486;51.010;10.366;2022-10-17T00:52:21;98762.94;;;10.12;82.10
14790;BME280;7486;51.010;10.366;2022-10-17T00:55:11;98765.25;;;10.22;81.88
14790;BME280;7486;51.010;10.366;2022-10-17T00:57:40;98761.84;;;10.28;81.29
14790;BME280;7486;51.010;10.366;2022-10-17T01:00:09;98763.66;;;10.28;80.66
14790;BME280;7486;51.010;10.366;2022-10-17T01:02:36;98771.06;;;10.32;80.75
14790;BME280;7486;51.010;10.366;2022-10-17T01:05:03;98767.59;;;10.32;81.48
14790;BME280;7486;51.010;10.366;2022-10-17T01:07:33;98769.66;;;10.36;82.07
14790;BME280;7486;51.010;10.366;2022-10-17T01:10:04;98768.47;;;10.39;82.50
14790;BME280;7486;51.010;10.366;2022-10-17T01:12:56;98766.16;;;10.50;82.23
14790;BME280;7486;51.010;10.366;2022-10-17T01:31:46;98767.84;;;10.58;81.47
14790;BME280;7486;51.010;10.366;2022-10-17T01:34:21;98780.06;;;10.59;81.59
14790;BME280;7486;51.010;10.366;2022-10-17T01:37:06;98774.19;;;10.63;82.36
14790;BME280;7486;51.010;10.366;2022-10-17T01:42:27;98782.22;;;10.77;82.53
14790;BME280;7486;51.010;10.366;2022-10-17T01:45:17;98780.22;;;10.79;82.82
14790;BME280;7486;51.010;10.366;2022-10-17T01:47:48;98776.16;;;10.83;82.55
14790;BME280;7486;51.010;10.366;2022-10-17T01:50:25;98777.78;;;10.84;81.97
14790;BME280;7486;51.010;10.366;2022-10-17T01:52:58;98779.88;;;10.88;81.64
14790;BME280;7486;51.010;10.366;2022-10-17T01:55:40;98776.16;;;10.83;80.82
14790;BME280;7486;51.010;10.366;2022-10-17T01:58:15;98775.97;;;10.84;81.20
14790;BME280;7486;51.010;10.366;2022-10-17T02:00:45;98778.19;;;10.81;82.79
14790;BME280;7486;51.010;10.366;2022-10-17T02:03:16;98774.16;;;10.85;81.89
14790;BME280;7486;51.010;10.366;2022-10-17T02:05:44;98779.78;;;10.75;80.51
14790;BME280;7486;51.010;10.366;2022-10-17T02:08:11;98777.13;;;10.75;82.14
14790;BME280;7486;51.010;10.366;2022-10-17T02:11:00;98787.53;;;10.77;82.72
14790;BME280;7486;51.010;10.366;2022-10-17T02:27:11;98782.69;;;10.38;80.76
14790;BME280;7486;51.010;10.366;2022-10-17T02:29:47;98791.34;;;10.46;81.58
14790;BME280;7486;51.010;10.366;2022-10-17T02:32:32;98751.69;;;10.32;82.06
14790;BME280;7486;51.010;10.366;2022-10-17T02:35:02;98786.56;;;10.56;82.16
14790;BME280;7486;51.010;10.366;2022-10-17T02:37:30;98790.88;;;10.57;81.38
14790;BME280;7486;51.010;10.366;2022-10-17T02:39:59;98788.22;;;10.57;81.11
14790;BME280;7486;51.010;10.366;2022-10-17T02:42:28;98784.09;;;10.55;80.35
14790;BME280;7486;51.010;10.366;2022-10-17T02:44:59;98792.81;;;10.49;79.49
14790;BME280;7486;51.010;10.366;2022-10-17T02:47:33;98757.59;;;10.27;79.07
14790;BME280;7486;51.010;10.366;2022-10-17T02:50:01;98769.66;;;10.36;79.34
14790;BME280;7486;51.010;10.366;2022-10-17T02:52:57;98792.16;;;10.47;79.13
14790;BME280;7486;51.010;10.366;2022-10-17T02:55:31;98790.28;;;10.41;78.86
14790;BME280;7486;51.010;10.366;2022-10-17T02:58:09;98795.53;;;10.34;78.44
14790;BME280;7486;51.010;10.366;2022-10-17T03:00:38;98789.97;;;10.29;79.17
14790;BME280;7486;51.010;10.366;2022-10-17T03:03:28;98792.50;;;10.37;79.66
14790;BME280;7486;51.010;10.366;2022-10-17T03:05:59;98791.25;;;10.33;80.33
14790;BME280;7486;51.010;10.366;2022-10-17T03:08:26;98796.09;;;10.30;80.89
14790;BME280;7486;51.010;10.366;2022-10-17T03:10:54;98797.16;;;10.35;80.73
14790;BME280;7486;51.010;10.366;2022-10-17T03:13:21;98802.94;;;10.24;80.87
14790;BME280;7486;51.010;10.366;2022-10-17T03:15:48;98800.88;;;10.19;81.78
14790;BME280;7486;51.010;10.366;2022-10-17T03:18:16;98804.59;;;10.25;81.35
14790;BME280;7486;51.010;10.366;2022-10-17T03:20:43;98796.72;;;10.32;80.81
14790;BME280;7486;51.010;10.366;2022-10-17T03:23:10;98807.31;;;10.32;80.46
14790;BME280;7486;51.010;10.366;2022-10-17T03:25:36;98805.88;;;10.29;79.67
14790;BME280;7486;51.010;10.366;2022-10-17T03:28:04;98802.22;;;10.30;79.65
14790;BME280;7486;51.010;10.366;2022-10-17T03:30:31;98818.28;;;10.29;79.14
14790;BME280;7486;51.010;10.366;2022-10-17T03:32:58;98807.44;;;10.23;78.53
14790;BME280;7486;51.010;10.366;2022-10-17T03:35:26;98814.75;;;10.21;78.67
14790;BME280;7486;51.010;10.366;2022-10-17T03:37:54;98803.72;;;10.18;79.03
14790;BME280;7486;51.010;10.366;2022-10-17T03:40:22;98804.22;;;10.07;79.95
14790;BME280;7486;51.010;10.366;2022-10-17T03:42:49;98810.78;;;10.11;80.98
14790;BME280;7486;51.010;10.366;2022-10-17T03:45:16;98801.00;;;10.11;80.72
14790;BME280;7486;51.010;10.366;2022-10-17T03:47:44;98801.66;;;10.13;80.86
14790;BME280;7486;51.010;10.366;2022-10-17T03:50:10;98799.63;;;10.15;80.88
14790;BME280;7486;51.010;10.366;2022-10-17T03:52:38;98799.00;;;10.13;80.70
14790;BME280;7486;51.010;10.366;2022-10-17T03:55:05;98809.38;;;10.15;80.56
14790;BME280;7486;51.010;10.366;2022-10-17T03:57:34;98804.34;;;9.99;81.34
14790;BME280;7486;51.010;10.366;2022-10-17T04:00:01;98808.06;;;10.04;81.74
14790;BME280;7486;51.010;10.366;2022-10-17T04:02:28;98807.44;;;10.02;81.08
14790;BME280;7486;51.010;10.366;2022-10-17T04:04:56;98808.25;;;10.03;80.88
14790;BME280;7486;51.010;10.366;2022-10-17T04:07:22;98805.84;;;10.08;80.76
14790;BME280;7486;51.010;10.366;2022-10-17T04:09:49;98815.22;;;10.10;80.84
14790;BME280;7486;51.010;10.366;2022-10-17T04:12:18;98812.78;;;10.09;80.76
14790;BME280;7486;51.010;10.366;2022-10-17T04:14:45;98816.00;;;10.04;81.21
14790;BME280;7486;51.010;10.366;2022-10-17T04:17:12;98769.31;;;9.76;80.80
14790;BME280;7486;51.010;10.366;2022-10-17T04:19:39;98807.44;;;10.02;80.46
14790;BME280;7486;51.010;10.366;2022-10-17T04:22:06;98807.00;;;9.99;80.56
14790;BME280;7486;51.010;10.366;2022-10-17T04:24:35;98807.44;;;10.02;80.15
14790;BME280;7486;51.010;10.366;2022-10-17T04:27:04;98809.88;;;10.04;80.08
14790;BME280;7486;51.010;10.366;2022-10-17T04:29:35;98811.28;;;10.00;79.69
14790;BME280;7486;51.010;10.366;2022-10-17T04:32:22;98816.59;;;10.00;79.76
14790;BME280;7486;51.010;10.366;2022-10-17T04:35:02;98815.75;;;9.99;79.85
14790;BME280;7486;51.010;10.366;2022-10-17T04:37:30;98823.50;;;10.01;79.92
14790;BME280;7486;51.010;10.366;2022-10-17T04:40:00;98822.06;;;9.98;79.64
14790;BME280;7486;51.010;10.366;2022-10-17T04:42:30;98823.69;;;9.99;79.50
14790;BME280;7486;51.010;10.366;2022-10-17T04:44:57;98824.69;;;9.98;79.41
14790;BME280;7486;51.010;10.366;2022-10-17T04:47:25;98822.22;;;9.97;79.53
14790;BME280;7486;51.010;10.366;2022-10-17T04:49:52;98824.69;;;9.98;79.25
14790;BME280;7486;51.010;10.366;2022-10-17T04:52:20;98825.91;;;9.96;79.05
14790;BME280;7486;51.010;10.366;2022-10-17T04:54:48;98822.97;;;9.91;78.78
14790;BME280;7486;51.010;10.366;2022-10-17T04:57:16;98824.63;;;9.92;79.60
14790;BME280;7486;51.010;10.366;2022-10-17T04:59:52;98828.53;;;9.96;79.60
14790;BME280;7486;51.010;10.366;2022-10-17T05:02:28;98830.28;;;9.89;81.43
14790;BME280;7486;51.010;10.366;2022-10-17T05:04:56;98841.50;;;9.91;81.51
14790;BME280;7486;51.010;10.366;2022-10-17T05:07:22;98840.13;;;9.95;81.39
14790;BME280;7486;51.010;10.366;2022-10-17T05:09:58;98847.69;;;9.98;81.64
14790;BME280;7486;51.010;10.366;2022-10-17T05:12:25;98849.06;;;9.94;81.22
14790;BME280;7486;51.010;10.366;2022-10-17T05:14:52;98849.50;;;9.97;81.83
14790;BME280;7486;51.010;10.366;2022-10-17T05:17:20;98849.06;;;9.94;82.11
14790;BME280;7486;51.010;10.366;2022-10-17T05:19:48;98858.72;;;10.01;82.28
14790;BME280;7486;51.010;10.366;2022-10-17T05:22:15;98854.31;;;10.08;82.07
14790;BME280;7486;51.010;10.366;2022-10-17T05:24:42;98855.75;;;10.11;82.29
14790;BME280;7486;51.010;10.366;2022-10-17T05:27:09;98854.78;;;10.12;81.88
14790;BME280;7486;51.010;10.366;2022-10-17T05:29:36;98849.91;;;10.15;81.99
14790;BME280;7486;51.010;10.366;2022-10-17T05:32:09;98854.59;;;10.13;81.72
14790;BME280;7486;51.010;10.366;2022-10-17T05:34:36;98857.41;;;10.12;81.74
14790;BME280;7486;51.010;10.366;2022-10-17T05:37:03;98848.66;;;10.11;82.35
14790;BME280;7486;51.010;10.366;2022-10-17T05:39:31;98854.59;;;10.13;82.33
14790;BME280;7486;51.010;10.366;2022-10-17T05:41:58;98862.72;;;10.12;81.76
14790;BME280;7486;51.010;10.366;2022-10-17T05:44:25;98849.75;;;10.17;81.77
14790;BME280;7486;51.010;10.366;2022-10-17T05:46:55;98845.06;;;10.19;81.92
14790;BME280;7486;51.010;10.366;2022-10-17T05:49:21;98853.47;;;10.22;82.92
14790;BME280;7486;51.010;10.366;2022-10-17T05:52:08;98853.84;;;10.19;83.73
14790;BME280;7486;51.010;10.366;2022-10-17T05:54:49;98853.19;;;10.17;83.96
14790;BME280;7486;51.010;10.366;2022-10-17T05:57:16;98846.22;;;10.10;82.85
14790;BME280;7486;51.010;10.366;2022-10-17T05:59:42;98846.06;;;10.18;84.03
14790;BME280;7486;51.010;10.366;2022-10-17T06:02:12;98843.69;;;10.23;83.60
14790;BME280;7486;51.010;10.366;2022-10-17T06:04:39;98850.25;;;10.27;83.51
14790;BME280;7486;51.010;10.366;2022-10-17T06:07:06;98856.00;;;10.31;83.34
14790;BME280;7486;51.010;10.366;2022-10-17T06:09:33;98861.72;;;10.34;83.03
14790;BME280;7486;51.010;10.366;2022-10-17T06:12:00;98866.59;;;10.31;82.64
14790;BME280;7486;51.010;10.366;2022-10-17T06:14:28;98873.69;;;10.30;82.81
14790;BME280;7486;51.010;10.366;2022-10-17T06:16:59;98875.97;;;10.33;82.97
14790;BME280;7486;51.010;10.366;2022-10-17T06:19:26;98872.38;;;10.41;83.30
14790;BME280;7486;51.010;10.366;2022-10-17T06:21:52;98876.47;;;10.43;83.39
14790;BME280;7486;51.010;10.366;2022-10-17T06:24:21;98876.97;;;10.32;82.21
14790;BME280;7486;51.010;10.366;2022-10-17T06:26:50;98885.91;;;10.31;82.84
14790;BME280;7486;51.010;10.366;2022-10-17T06:29:19;98882.53;;;10.37;83.22
14790;BME280;7486;51.010;10.366;2022-10-17T06:31:48;98882.81;;;10.28;82.45
14790;BME280;7486;51.010;10.366;2022-10-17T06:34:15;98884.47;;;10.29;83.49
14790;BME280;7486;51.010;10.366;2022-10-17T06:36:43;98897.72;;;10.29;84.37
14790;BME280;7486;51.010;10.366;2022-10-17T06:39:10;98881.66;;;10.30;85.79
14790;BME280;7486;51.010;10.366;2022-10-17T06:41:54;98897.78;;;10.35;86.73
14790;BME280;7486;51.010;10.366;2022-10-17T06:44:34;98902.94;;;10.58;87.77
14790;BME280;7486;51.010;10.366;2022-10-17T06:47:21;98900.66;;;10.76;87.93
14790;BME280;7486;51.010;10.366;2022-10-17T06:49:50;98908.53;;;10.91;87.88
14790;BME280;7486;51.010;10.366;2022-10-17T06:52:41;98913.38;;;11.08;87.94
14790;BME280;7486;51.010;10.366;2022-10-17T06:55:31;98915.53;;;11.26;88.04
14790;BME280;7486;51.010;10.366;2022-10-17T06:58:20;98913.16;;;11.38;88.08
14790;BME280;7486;51.010;10.366;2022-10-17T07:01:12;98930.19;;;11.50;88.07
14790;BME280;7486;51.010;10.366;2022-10-17T07:03:39;98928.84;;;11.60;87.94
14790;BME280;7486;51.010;10.366;2022-10-17T07:06:07;98921.09;;;11.65;87.91
14790;BME280;7486;51.010;10.366;2022-10-17T07:08:34;98921.19;;;11.79;88.34
14790;BME280;7486;51.010;10.366;2022-10-17T07:11:13;98927.34;;;11.86;87.58
14790;BME280;7486;51.010;10.366;2022-10-17T07:13:41;98893.16;;;11.69;88.36
14790;BME280;7486;51.010;10.366;2022-10-17T07:16:08;98928.09;;;12.14;88.36
14790;BME280;7486;51.010;10.366;2022-10-17T07:18:37;98899.28;;;12.11;88.42
14790;BME280;7486;51.010;10.366;2022-10-17T07:21:05;98906.72;;;12.42;88.20
14790;BME280;7486;51.010;10.366;2022-10-17T07:23:34;98879.31;;;12.35;88.33
14790;BME280;7486;51.010;10.366;2022-10-17T07:26:04;98921.91;;;12.74;87.95
14790;BME280;7486;51.010;10.366;2022-10-17T07:28:35;98922.97;;;12.86;87.30
14790;BME280;7486;51.010;10.366;2022-10-17T07:31:14;98930.75;;;13.01;86.15
14790;BME280;7486;51.010;10.366;2022-10-17T07:33:41;98896.56;;;12.85;84.97
14790;BME280;7486;51.010;10.366;2022-10-17T07:36:08;98939.53;;;13.14;84.49
14790;BME280;7486;51.010;10.366;2022-10-17T07:38:35;98940.75;;;13.12;84.04
14790;BME280;7486;51.010;10.366;2022-10-17T07:41:05;98928.91;;;13.21;83.01
14790;BME280;7486;51.010;10.366;2022-10-17T07:43:33;98937.06;;;13.13;82.67
14790;BME280;7486;51.010;10.366;2022-10-17T07:46:01;98936.06;;;13.20;82.29
14790;BME280;7486;51.010;10.366;2022-10-17T07:48:28;98932.56;;;13.33;81.75
14790;BME280;7486;51.010;10.366;2022-10-17T07:50:55;98914.34;;;13.37;81.28
14790;BME280;7486;51.010;10.366;2022-10-17T07:53:22;98889.19;;;13.26;80.87
14790;BME280;7486;51.010;10.366;2022-10-17T07:55:49;98931.34;;;13.55;80.43
14790;BME280;7486;51.010;10.366;2022-10-17T07:58:16;98934.41;;;13.46;80.53
14790;BME280;7486;51.010;10.366;2022-10-17T08:00:42;98931.34;;;13.55;80.61
14790;BME280;7486;51.010;10.366;2022-10-17T08:03:09;98887.97;;;13.35;80.27
14790;BME280;7486;51.010;10.366;2022-10-17T08:05:36;98927.41;;;13.71;79.74
14790;BME280;7486;51.010;10.366;2022-10-17T08:08:03;98921.88;;;13.72;80.62
14790;BME280;7486;51.010;10.366;2022-10-17T08:10:29;98928.00;;;13.86;81.31
14790;BME280;7486;51.010;10.366;2022-10-17T08:12:57;98919.72;;;14.01;80.83
14790;BME280;7486;51.010;10.366;2022-10-17T08:15:24;98902.13;;;14.00;79.98
14790;BME280;7486;51.010;10.366;2022-10-17T08:17:57;98929.84;;;14.30;79.43
14790;BME280;7486;51.010;10.366;2022-10-17T08:20:24;98925.69;;;14.47;78.63
14790;BME280;7486;51.010;10.366;2022-10-17T08:22:54;98923.03;;;14.47;78.23
14790;BME280;7486;51.010;10.366;2022-10-17T08:25:21;98914.50;;;14.63;77.22
14790;BME280;7486;51.010;10.366;2022-10-17T08:27:48;98920.53;;;14.84;76.44
14790;BME280;7486;51.010;10.366;2022-10-17T08:30:16;98935.28;;;14.86;75.54
14790;BME280;7486;51.010;10.366;2022-10-17T08:32:43;98928.75;;;15.07;74.71
14790;BME280;7486;51.010;10.366;2022-10-17T08:35:10;98921.44;;;15.27;73.27
14790;BME280;7486;51.010;10.366;2022-10-17T08:37:37;98924.69;;;15.29;73.47
14790;BME280;7486;51.010;10.366;2022-10-17T08:40:16;98928.00;;;15.49;72.79
14790;BME280;7486;51.010;10.366;2022-10-17T08:43:03;98927.22;;;15.67;72.23
14790;BME280;7486;51.010;10.366;2022-10-17T08:45:37;98924.91;;;15.89;71.14
14790;BME280;7486;51.010;10.366;2022-10-17T08:48:12;98926.72;;;16.13;71.24
14790;BME280;7486;51.010;10.366;2022-10-17T08:50:53;98922.44;;;16.23;68.94
14790;BME280;7486;51.010;10.366;2022-10-17T08:56:04;98919.72;;;16.12;68.38
14790;BME280;7486;51.010;10.366;2022-10-17T08:58:37;98926.09;;;16.29;67.61
14790;BME280;7486;51.010;10.366;2022-10-17T09:04:01;98918.53;;;16.56;67.59
14790;BME280;7486;51.010;10.366;2022-10-17T09:06:34;98917.97;;;16.65;66.83
14790;BME280;7486;51.010;10.366;2022-10-17T09:09:28;98908.22;;;16.71;65.75
14790;BME280;7486;51.010;10.366;2022-10-17T09:20:19;98908.44;;;17.34;64.08
14790;BME280;7486;51.010;10.366;2022-10-17T09:25:27;98903.53;;;17.54;62.52
14790;BME280;7486;51.010;10.366;2022-10-17T09:28:03;98897.16;;;17.67;62.45
14790;BME280;7486;51.010;10.366;2022-10-17T09:33:20;98906.41;;;17.99;62.23
14790;BME280;7486;51.010;10.366;2022-10-17T09:36:10;98908.28;;;18.27;61.37
14790;BME280;7486;51.010;10.366;2022-10-17T09:38:41;98903.69;;;18.39;62.53
14790;BME280;7486;51.010;10.366;2022-10-17T09:41:36;98875.06;;;18.28;60.35
14790;BME280;7486;51.010;10.366;2022-10-17T09:44:16;98908.72;;;18.64;58.23
14790;BME280;7486;51.010;10.366;2022-10-17T09:49:42;98906.47;;;18.72;58.45
14790;BME280;7486;51.010;10.366;2022-10-17T09:52:24;98904.84;;;18.71;58.43
14790;BME280;7486;51.010;10.366;2022-10-17T09:55:02;98897.94;;;18.76;59.04
14790;BME280;7486;51.010;10.366;2022-10-17T10:00:25;98891.59;;;18.82;58.23
14790;BME280;7486;51.010;10.366;2022-10-17T10:06:02;98893.97;;;18.95;57.77
14790;BME280;7486;51.010;10.366;2022-10-17T10:08:34;98890.00;;;19.14;57.56
14790;BME280;7486;51.010;10.366;2022-10-17T10:11:07;98883.56;;;19.15;56.38
14790;BME280;7486;51.010;10.366;2022-10-17T10:13:39;98895.91;;;19.33;56.58
14790;BME280;7486;51.010;10.366;2022-10-17T10:18:42;98894.88;;;19.34;55.46
14790;BME280;7486;51.010;10.366;2022-10-17T10:21:17;98898.94;;;19.36;55.58
14790;BME280;7486;51.010;10.366;2022-10-17T10:26:38;98910.41;;;19.48;55.43
14790;BME280;7486;51.010;10.366;2022-10-17T10:31:45;98914.06;;;19.59;54.45
14790;BME280;7486;51.010;10.366;2022-10-17T10:36:49;98927.16;;;19.55;55.31
14790;BME280;7486;51.010;10.366;2022-10-17T10:39:31;98921.66;;;19.84;56.10
14790;BME280;7486;51.010;10.366;2022-10-17T10:42:00;98928.69;;;20.06;54.97
14790;BME280;7486;51.010;10.366;2022-10-17T10:44:29;98916.75;;;19.81;55.41
14790;BME280;7486;51.010;10.366;2022-10-17T10:47:19;98923.03;;;20.08;55.25
14790;BME280;7486;51.010;10.366;2022-10-17T10:49:49;98924.91;;;20.29;53.88
14790;BME280;7486;51.010;10.366;2022-10-17T10:52:31;98918.34;;;19.98;54.43
14790;BME280;7486;51.010;10.366;2022-10-17T10:55:13;98919.59;;;20.12;53.74
14790;BME280;7486;51.010;10.366;2022-10-17T10:57:43;98928.09;;;20.26;53.08
14790;BME280;7486;51.010;10.366;2022-10-17T11:00:18;98924.47;;;20.37;53.07
14790;BME280;7486;51.010;10.366;2022-10-17T11:05:48;98918.34;;;20.20;53.12
14790;BME280;7486;51.010;10.366;2022-10-17T11:08:28;98926.34;;;20.15;53.48
14790;BME280;7486;51.010;10.366;2022-10-17T11:13:43;98927.59;;;20.07;52.66
14790;BME280;7486;51.010;10.366;2022-10-17T11:16:26;98919.53;;;20.07;53.40
14790;BME280;7486;51.010;10.366;2022-10-17T11:19:15;98920.47;;;20.18;53.79
14790;BME280;7486;51.010;10.366;2022-10-17T11:24:36;98932.16;;;20.29;51.76
14790;BME280;7486;51.010;10.366;2022-10-17T11:27:06;98921.41;;;20.50;52.49
14790;BME280;7486;51.010;10.366;2022-10-17T11:29:35;98917.06;;;20.49;51.37
14790;BME280;7486;51.010;10.366;2022-10-17T11:32:09;98913.81;;;20.47;51.17
14790;BME280;7486;51.010;10.366;2022-10-17T11:34:44;98913.44;;;20.60;51.25
14790;BME280;7486;51.010;10.366;2022-10-17T11:37:20;98902.31;;;20.52;51.40
14790;BME280;7486;51.010;10.366;2022-10-17T11:40:13;98921.19;;;20.57;52.35
14790;BME280;7486;51.010;10.366;2022-10-17T11:42:57;98912.88;;;20.37;51.84
14790;BME280;7486;51.010;10.366;2022-10-17T11:45:28;98919.44;;;20.24;52.22
14790;BME280;7486;51.010;10.366;2022-10-17T11:48:04;98913.34;;;20.50;51.74
14790;BME280;7486;51.010;10.366;2022-10-17T11:50:33;98918.47;;;20.79;52.37
14790;BME280;7486;51.010;10.366;2022-10-17T11:53:32;98918.56;;;20.89;52.83
14790;BME280;7486;51.010;10.366;2022-10-17T11:56:02;98917.63;;;21.10;50.73
14790;BME280;7486;51.010;10.366;2022-10-17T11:58:38;98913.06;;;21.10;51.53
14790;BME280;7486;51.010;10.366;2022-10-17T12:09:11;98911.81;;;20.59;50.90
14790;BME280;7486;51.010;10.366;2022-10-17T12:11:58;98912.41;;;20.66;51.32
14790;BME280;7486;51.010;10.366;2022-10-17T12:14:44;98898.72;;;20.68;51.01
14790;BME280;7486;51.010;10.366;2022-10-17T12:17:27;98904.59;;;20.65;51.25
14790;BME280;7486;51.010;10.366;2022-10-17T12:22:48;98895.66;;;20.59;50.82
14790;BME280;7486;51.010;10.366;2022-10-17T12:25:18;98898.72;;;20.68;50.44
14790;BME280;7486;51.010;10.366;2022-10-17T12:27:47;98894.31;;;20.89;49.52
14790;BME280;7486;51.010;10.366;2022-10-17T12:30:24;98915.44;;;21.02;49.07
14790;BME280;7486;51.010;10.366;2022-10-17T12:33:15;98899.28;;;21.02;50.16
14790;BME280;7486;51.010;10.366;2022-10-17T12:35:42;98908.97;;;21.35;49.95
14790;BME280;7486;51.010;10.366;2022-10-17T12:46:00;98900.75;;;21.56;46.98
14790;BME280;7486;51.010;10.366;2022-10-17T12:53:58;98903.31;;;21.78;46.88
14790;BME280;7486;51.010;10.366;2022-10-17T12:59:19;98897.75;;;22.00;47.23
14790;BME280;7486;51.010;10.366;2022-10-17T13:01:59;98896.97;;;22.04;47.30
14790;BME280;7486;51.010;10.366;2022-10-17T13:04:28;98899.38;;;22.06;46.51
14790;BME280;7486;51.010;10.366;2022-10-17T13:06:57;98902.31;;;21.99;46.17
14790;BME280;7486;51.010;10.366;2022-10-17T13:09:50;98908.81;;;22.03;48.28
14790;BME280;7486;51.010;10.366;2022-10-17T13:12:22;98908.91;;;21.71;45.88
14790;BME280;7486;51.010;10.366;2022-10-17T13:14:51;98899.41;;;21.54;45.35
14790;BME280;7486;51.010;10.366;2022-10-17T13:17:25;98899.94;;;21.56;46.16
14790;BME280;7486;51.010;10.366;2022-10-17T13:19:52;98900.56;;;21.73;46.99
14790;BME280;7486;51.010;10.366;2022-10-17T13:22:27;98902.09;;;21.59;45.54
14790;BME280;7486;51.010;10.366;2022-10-17T13:25:27;98915.28;;;21.55;46.25
14790;BME280;7486;51.010;10.366;2022-10-17T13:28:06;98883.19;;;21.49;47.41
14790;BME280;7486;51.010;10.366;2022-10-17T13:30:35;98924.50;;;21.64;45.91
14790;BME280;7486;51.010;10.366;2022-10-17T13:33:02;98880.72;;;21.42;46.01
14790;BME280;7486;51.010;10.366;2022-10-17T13:35:32;98907.25;;;21.60;46.36
14790;BME280;7486;51.010;10.366;2022-10-17T13:38:24;98898.34;;;21.60;46.67
14790;BME280;7486;51.010;10.366;2022-10-17T13:40:51;98904.28;;;21.62;47.79
14790;BME280;7486;51.010;10.366;2022-10-17T13:43:28;98917.47;;;21.58;48.27
14790;BME280;7486;51.010;10.366;2022-10-17T13:45:59;98915.28;;;21.55;46.24
14790;BME280;7486;51.010;10.366;2022-10-17T13:48:47;98911.53;;;21.56;46.85
14790;BME280;7486;51.010;10.366;2022-10-17T13:51:13;98920.38;;;21.52;46.71
14790;BME280;7486;51.010;10.366;2022-10-17T13:53:40;98921.06;;;21.32;46.82
14790;BME280;7486;51.010;10.366;2022-10-17T13:56:20;98931.09;;;21.10;46.24
14790;BME280;7486;51.010;10.366;2022-10-17T13:58:57;98900.59;;;20.99;47.04
14790;BME280;7486;51.010;10.366;2022-10-17T14:01:26;98916.94;;;21.19;45.78
14790;BME280;7486;51.010;10.366;2022-10-17T14:03:53;98919.31;;;20.84;46.23
14790;BME280;7486;51.010;10.366;2022-10-17T14:06:40;98921.50;;;20.60;46.55
14790;BME280;7486;51.010;10.366;2022-10-17T14:09:23;98913.34;;;20.50;47.36
14790;BME280;7486;51.010;10.366;2022-10-17T14:12:03;98926.31;;;20.58;46.81
14790;BME280;7486;51.010;10.366;2022-10-17T14:14:33;98910.81;;;20.44;47.22
14790;BME280;7486;51.010;10.366;2022-10-17T14:17:24;98929.16;;;20.73;46.79
14790;BME280;7486;51.010;10.366;2022-10-17T14:19:55;98900.44;;;20.52;47.61
14790;BME280;7486;51.010;10.366;2022-10-17T14:22:42;98920.94;;;20.58;47.26
14790;BME280;7486;51.010;10.366;2022-10-17T14:25:36;98875.66;;;20.50;46.73
14790;BME280;7486;51.010;10.366;2022-10-17T14:33:29;98921.56;;;20.17;48.76
14790;BME280;7486;51.010;10.366;2022-10-17T14:35:57;98916.31;;;20.32;48.58
14790;BME280;7486;51.010;10.366;2022-10-17T14:38:26;98913.84;;;20.04;48.75
14790;BME280;7486;51.010;10.366;2022-10-17T14:41:00;98866.50;;;19.81;48.81
14790;BME280;7486;51.010;10.366;2022-10-17T14:43:55;98918.47;;;20.08;48.79
14790;BME280;7486;51.010;10.366;2022-10-17T14:46:22;98912.25;;;20.03;48.59
14790;BME280;7486;51.010;10.366;2022-10-17T14:48:52;98921.53;;;19.95;49.17
14790;BME280;7486;51.010;10.366;2022-10-17T14:51:19;98928.38;;;20.03;49.31
14790;BME280;7486;51.010;10.366;2022-10-17T14:54:16;98918.97;;;20.05;49.33
14790;BME280;7486;51.010;10.366;2022-10-17T14:56:49;98918.91;;;20.00;49.92
14790;BME280;7486;51.010;10.366;2022-10-17T14:59:16;98924.34;;;20.05;49.20
14790;BME280;7486;51.010;10.366;2022-10-17T15:02:01;98920.41;;;19.91;49.32
14790;BME280;7486;51.010;10.366;2022-10-17T15:04:28;98934.13;;;19.73;49.78
14790;BME280;7486;51.010;10.366;2022-10-17T15:06:54;98938.84;;;19.66;50.09
14790;BME280;7486;51.010;10.366;2022-10-17T15:09:21;98940.66;;;19.60;50.41
14790;BME280;7486;51.010;10.366;2022-10-17T15:11:48;98948.22;;;19.63;50.71
14790;BME280;7486;51.010;10.366;2022-10-17T15:14:14;98954.19;;;19.49;50.98
14790;BME280;7486;51.010;10.366;2022-10-17T15:16:41;98951.03;;;19.52;51.25
14790;BME280;7486;51.010;10.366;2022-10-17T15:19:08;98958.16;;;19.63;51.66
14790;BME280;7486;51.010;10.366;2022-10-17T15:21:35;98957.44;;;19.67;51.39